sensor_id;sensor_type;location;lat;lon;timestamp;P1;durP1;ratioP1;P2;durP2;ratioP2
48951;SDS011;34758;42.148;24.744;2022-07-29T00:08:07;5.07;;;1.92;;
48951;SDS011;34758;42.148;24.744;2022-07-29T00:10:58;3.42;;;2.20;;
48951;SDS011;34758;42.148;24.744;2022-07-29T00:20:24;5.57;;;2.13;;
48951;SDS011;34758;42.148;24.744;2022-07-29T00:22:51;4.57;;;2.10;;
48951;SDS011;34758;42.148;24.744;2022-07-29T00:28:26;4.78;;;2.50;;
48951;SDS011;34758;42.148;24.744;2022-07-29T00:37:37;3.15;;;2.30;;
48951;SDS011;34758;42.148;24.744;2022-07-29T01:07:35;5.18;;;3.05;;
48951;SDS011;34758;42.148;24.744;2022-07-29T01:10:03;4.07;;;3.60;;
48951;SDS011;34758;42.148;24.744;2022-07-29T01:12:31;4.40;;;2.80;;
48951;SDS011;34758;42.148;24.744;2022-07-29T01:14:59;6.72;;;2.83;;
48951;SDS011;34758;42.148;24.744;2022-07-29T01:17:28;4.32;;;2.95;;
48951;SDS011;34758;42.148;24.744;2022-07-29T01:20:00;5.63;;;3.38;;
48951;SDS011;34758;42.148;24.744;2022-07-29T01:22:37;4.25;;;3.10;;
48951;SDS011;34758;42.148;24.744;2022-07-29T01:31:10;6.65;;;3.00;;
48951;SDS011;34758;42.148;24.744;2022-07-29T01:33:40;6.28;;;3.00;;
48951;SDS011;34758;42.148;24.744;2022-07-29T01:36:17;4.18;;;3.20;;
48951;SDS011;34758;42.148;24.744;2022-07-29T01:38:50;5.88;;;3.22;;
48951;SDS011;34758;42.148;24.744;2022-07-29T01:41:20;4.50;;;3.65;;
48951;SDS011;34758;42.148;24.744;2022-07-29T01:43:49;5.57;;;3.40;;
48951;SDS011;34758;42.148;24.744;2022-07-29T01:46:24;7.55;;;3.70;;
48951;SDS011;34758;42.148;24.744;2022-07-29T01:48:54;6.03;;;3.97;;
48951;SDS011;34758;42.148;24.744;2022-07-29T01:51:25;5.63;;;4.00;;
48951;SDS011;34758;42.148;24.744;2022-07-29T01:53:57;4.15;;;3.42;;
48951;SDS011;34758;42.148;24.744;2022-07-29T01:56:26;4.57;;;3.72;;
48951;SDS011;34758;42.148;24.744;2022-07-29T01:58:57;8.57;;;4.28;;
48951;SDS011;34758;42.148;24.744;2022-07-29T02:01:26;5.78;;;4.18;;
48951;SDS011;34758;42.148;24.744;2022-07-29T02:03:55;6.00;;;3.63;;
48951;SDS011;34758;42.148;24.744;2022-07-29T02:06:23;5.03;;;4.10;;
48951;SDS011;34758;42.148;24.744;2022-07-29T02:08:51;5.63;;;4.25;;
48951;SDS011;34758;42.148;24.744;2022-07-29T02:11:19;7.05;;;4.70;;
48951;SDS011;34758;42.148;24.744;2022-07-29T02:13:46;5.45;;;3.28;;
48951;SDS011;34758;42.148;24.744;2022-07-29T02:16:14;5.03;;;3.00;;
48951;SDS011;34758;42.148;24.744;2022-07-29T02:18:43;8.70;;;3.45;;
48951;SDS011;34758;42.148;24.744;2022-07-29T02:21:11;4.38;;;3.38;;
48951;SDS011;34758;42.148;24.744;2022-07-29T02:23:39;10.38;;;3.72;;
48951;SDS011;34758;42.148;24.744;2022-07-29T02:26:06;3.58;;;2.50;;
48951;SDS011;34758;42.148;24.744;2022-07-29T02:28:34;3.83;;;2.75;;
48951;SDS011;34758;42.148;24.744;2022-07-29T02:31:02;5.93;;;2.78;;
48951;SDS011;34758;42.148;24.744;2022-07-29T02:33:29;2.67;;;2.45;;
48951;SDS011;34758;42.148;24.744;2022-07-29T02:35:58;5.53;;;3.08;;
48951;SDS011;34758;42.148;24.744;2022-07-29T02:38:26;6.85;;;3.08;;
48951;SDS011;34758;42.148;24.744;2022-07-29T02:41:13;4.32;;;2.72;;
48951;SDS011;34758;42.148;24.744;2022-07-29T02:43:44;4.43;;;2.92;;
48951;SDS011;34758;42.148;24.744;2022-07-29T02:46:14;5.70;;;3.17;;
48951;SDS011;34758;42.148;24.744;2022-07-29T02:48:46;4.45;;;2.63;;
48951;SDS011;34758;42.148;24.744;2022-07-29T02:51:17;3.85;;;2.67;;
48951;SDS011;34758;42.148;24.744;2022-07-29T02:53:49;4.82;;;2.58;;
48951;SDS011;34758;42.148;24.744;2022-07-29T02:56:18;4.30;;;2.65;;
48951;SDS011;34758;42.148;24.744;2022-07-29T02:58:53;4.15;;;2.83;;
48951;SDS011;34758;42.148;24.744;2022-07-29T03:01:22;5.82;;;3.15;;
48951;SDS011;34758;42.148;24.744;2022-07-29T03:03:52;3.42;;;3.03;;
48951;SDS011;34758;42.148;24.744;2022-07-29T03:06:21;5.13;;;3.30;;
48951;SDS011;34758;42.148;24.744;2022-07-29T03:08:49;4.57;;;3.20;;
48951;SDS011;34758;42.148;24.744;2022-07-29T03:11:17;3.47;;;2.88;;
48951;SDS011;34758;42.148;24.744;2022-07-29T03:13:44;9.60;;;3.03;;
48951;SDS011;34758;42.148;24.744;2022-07-29T03:16:11;8.45;;;3.40;;
48951;SDS011;34758;42.148;24.744;2022-07-29T03:18:39;6.47;;;3.08;;
48951;SDS011;34758;42.148;24.744;2022-07-29T03:21:06;11.48;;;3.63;;
48951;SDS011;34758;42.148;24.744;2022-07-29T03:23:34;5.07;;;3.42;;
48951;SDS011;34758;42.148;24.744;2022-07-29T03:26:01;7.03;;;4.00;;
48951;SDS011;34758;42.148;24.744;2022-07-29T03:28:29;6.20;;;3.45;;
48951;SDS011;34758;42.148;24.744;2022-07-29T03:30:56;6.80;;;3.55;;
48951;SDS011;34758;42.148;24.744;2022-07-29T03:33:23;7.28;;;3.90;;
48951;SDS011;34758;42.148;24.744;2022-07-29T03:35:50;6.22;;;3.75;;
48951;SDS011;34758;42.148;24.744;2022-07-29T03:38:17;6.32;;;3.15;;
48951;SDS011;34758;42.148;24.744;2022-07-29T03:40:46;8.35;;;3.60;;
48951;SDS011;34758;42.148;24.744;2022-07-29T03:43:18;6.40;;;3.28;;
48951;SDS011;34758;42.148;24.744;2022-07-29T03:45:47;7.07;;;3.42;;
48951;SDS011;34758;42.148;24.744;2022-07-29T03:48:19;6.93;;;3.58;;
48951;SDS011;34758;42.148;24.744;2022-07-29T03:50:47;6.20;;;3.30;;
48951;SDS011;34758;42.148;24.744;2022-07-29T03:53:15;10.05;;;4.13;;
48951;SDS011;34758;42.148;24.744;2022-07-29T03:55:47;4.93;;;3.60;;
48951;SDS011;34758;42.148;24.744;2022-07-29T03:58:17;10.25;;;3.90;;
48951;SDS011;34758;42.148;24.744;2022-07-29T04:00:45;7.47;;;4.18;;
48951;SDS011;34758;42.148;24.744;2022-07-29T04:03:13;8.70;;;3.95;;
48951;SDS011;34758;42.148;24.744;2022-07-29T04:05:40;10.57;;;3.67;;
48951;SDS011;34758;42.148;24.744;2022-07-29T04:08:07;8.57;;;3.97;;
48951;SDS011;34758;42.148;24.744;2022-07-29T04:10:34;7.47;;;3.80;;
48951;SDS011;34758;42.148;24.744;2022-07-29T04:13:03;6.38;;;3.90;;
48951;SDS011;34758;42.148;24.744;2022-07-29T04:15:30;7.00;;;4.22;;
48951;SDS011;34758;42.148;24.744;2022-07-29T04:17:57;7.20;;;3.60;;
48951;SDS011;34758;42.148;24.744;2022-07-29T04:20:24;8.27;;;3.88;;
48951;SDS011;34758;42.148;24.744;2022-07-29T04:22:51;10.43;;;4.03;;
48951;SDS011;34758;42.148;24.744;2022-07-29T04:25:18;7.35;;;4.03;;
48951;SDS011;34758;42.148;24.744;2022-07-29T04:27:45;10.43;;;4.30;;
48951;SDS011;34758;42.148;24.744;2022-07-29T04:30:28;7.60;;;4.20;;
48951;SDS011;34758;42.148;24.744;2022-07-29T04:32:55;5.80;;;3.42;;
48951;SDS011;34758;42.148;24.744;2022-07-29T04:35:22;5.55;;;3.60;;
48951;SDS011;34758;42.148;24.744;2022-07-29T04:37:50;8.43;;;3.65;;
48951;SDS011;34758;42.148;24.744;2022-07-29T04:40:17;5.82;;;3.30;;
48951;SDS011;34758;42.148;24.744;2022-07-29T04:42:45;4.05;;;3.65;;
48951;SDS011;34758;42.148;24.744;2022-07-29T04:45:12;5.55;;;3.42;;
48951;SDS011;34758;42.148;24.744;2022-07-29T04:47:40;5.72;;;3.90;;
48951;SDS011;34758;42.148;24.744;2022-07-29T04:50:07;7.07;;;3.20;;
48951;SDS011;34758;42.148;24.744;2022-07-29T04:52:35;4.75;;;3.80;;
48951;SDS011;34758;42.148;24.744;2022-07-29T04:55:02;4.07;;;3.63;;
48951;SDS011;34758;42.148;24.744;2022-07-29T04:57:29;5.03;;;3.60;;
48951;SDS011;34758;42.148;24.744;2022-07-29T04:59:56;6.40;;;3.75;;
48951;SDS011;34758;42.148;24.744;2022-07-29T05:02:23;6.88;;;4.28;;
48951;SDS011;34758;42.148;24.744;2022-07-29T05:04:51;5.43;;;3.97;;
48951;SDS011;34758;42.148;24.744;2022-07-29T05:07:18;6.00;;;4.40;;
48951;SDS011;34758;42.148;24.744;2022-07-29T05:09:45;9.00;;;5.05;;
48951;SDS011;34758;42.148;24.744;2022-07-29T05:12:13;6.75;;;4.65;;
48951;SDS011;34758;42.148;24.744;2022-07-29T05:14:40;7.65;;;4.43;;
48951;SDS011;34758;42.148;24.744;2022-07-29T05:17:07;6.18;;;4.75;;
48951;SDS011;34758;42.148;24.744;2022-07-29T05:19:34;5.38;;;4.35;;
48951;SDS011;34758;42.148;24.744;2022-07-29T05:22:02;6.28;;;4.63;;
48951;SDS011;34758;42.148;24.744;2022-07-29T05:24:29;7.03;;;4.65;;
48951;SDS011;34758;42.148;24.744;2022-07-29T05:26:56;8.95;;;4.78;;
48951;SDS011;34758;42.148;24.744;2022-07-29T05:29:23;7.63;;;4.40;;
48951;SDS011;34758;42.148;24.744;2022-07-29T05:31:51;7.20;;;4.40;;
48951;SDS011;34758;42.148;24.744;2022-07-29T05:34:18;10.23;;;4.15;;
48951;SDS011;34758;42.148;24.744;2022-07-29T05:36:45;8.63;;;3.85;;
48951;SDS011;34758;42.148;24.744;2022-07-29T05:39:13;7.22;;;3.88;;
48951;SDS011;34758;42.148;24.744;2022-07-29T05:41:40;6.80;;;4.03;;
48951;SDS011;34758;42.148;24.744;2022-07-29T05:44:08;5.47;;;3.58;;
48951;SDS011;34758;42.148;24.744;2022-07-29T05:46:35;7.07;;;4.43;;
48951;SDS011;34758;42.148;24.744;2022-07-29T05:49:02;9.93;;;4.32;;
48951;SDS011;34758;42.148;24.744;2022-07-29T05:51:29;11.75;;;4.63;;
48951;SDS011;34758;42.148;24.744;2022-07-29T05:53:56;7.82;;;4.43;;
48951;SDS011;34758;42.148;24.744;2022-07-29T05:56:25;8.73;;;4.45;;
48951;SDS011;34758;42.148;24.744;2022-07-29T05:58:52;6.30;;;4.03;;
48951;SDS011;34758;42.148;24.744;2022-07-29T06:01:19;5.75;;;4.57;;
48951;SDS011;34758;42.148;24.744;2022-07-29T06:03:46;9.85;;;5.30;;
48951;SDS011;34758;42.148;24.744;2022-07-29T06:06:13;5.38;;;4.43;;
48951;SDS011;34758;42.148;24.744;2022-07-29T06:08:40;8.27;;;5.40;;
48951;SDS011;34758;42.148;24.744;2022-07-29T06:11:07;9.43;;;5.47;;
48951;SDS011;34758;42.148;24.744;2022-07-29T06:13:36;7.30;;;5.10;;
48951;SDS011;34758;42.148;24.744;2022-07-29T06:16:05;4.95;;;4.50;;
48951;SDS011;34758;42.148;24.744;2022-07-29T06:18:32;5.30;;;4.82;;
48951;SDS011;34758;42.148;24.744;2022-07-29T06:21:00;8.52;;;5.20;;
48951;SDS011;34758;42.148;24.744;2022-07-29T06:23:27;7.40;;;4.45;;
48951;SDS011;34758;42.148;24.744;2022-07-29T06:25:55;9.63;;;5.75;;
48951;SDS011;34758;42.148;24.744;2022-07-29T06:28:22;9.15;;;5.22;;
48951;SDS011;34758;42.148;24.744;2022-07-29T06:30:50;6.25;;;5.38;;
48951;SDS011;34758;42.148;24.744;2022-07-29T06:33:17;7.90;;;5.25;;
48951;SDS011;34758;42.148;24.744;2022-07-29T06:35:45;8.88;;;5.80;;
48951;SDS011;34758;42.148;24.744;2022-07-29T06:38:14;6.65;;;5.13;;
48951;SDS011;34758;42.148;24.744;2022-07-29T06:40:42;11.75;;;5.80;;
48951;SDS011;34758;42.148;24.744;2022-07-29T06:43:27;7.07;;;6.38;;
48951;SDS011;34758;42.148;24.744;2022-07-29T06:45:59;6.77;;;5.80;;
48951;SDS011;34758;42.148;24.744;2022-07-29T06:50:55;10.95;;;5.80;;
48951;SDS011;34758;42.148;24.744;2022-07-29T06:53:22;9.40;;;6.20;;
48951;SDS011;34758;42.148;24.744;2022-07-29T06:55:49;9.43;;;5.72;;
48951;SDS011;34758;42.148;24.744;2022-07-29T06:58:16;7.68;;;5.93;;
48951;SDS011;34758;42.148;24.744;2022-07-29T07:00:45;8.73;;;5.55;;
48951;SDS011;34758;42.148;24.744;2022-07-29T07:03:15;5.78;;;4.97;;
48951;SDS011;34758;42.148;24.744;2022-07-29T07:05:42;8.93;;;6.05;;
48951;SDS011;34758;42.148;24.744;2022-07-29T07:08:09;7.47;;;5.97;;
48951;SDS011;34758;42.148;24.744;2022-07-29T07:10:36;6.43;;;5.82;;
48951;SDS011;34758;42.148;24.744;2022-07-29T07:13:03;6.55;;;5.88;;
48951;SDS011;34758;42.148;24.744;2022-07-29T07:15:31;7.30;;;5.55;;
48951;SDS011;34758;42.148;24.744;2022-07-29T07:17:58;7.32;;;5.18;;
48951;SDS011;34758;42.148;24.744;2022-07-29T07:20:26;9.77;;;5.45;;
48951;SDS011;34758;42.148;24.744;2022-07-29T07:22:53;5.72;;;5.22;;
48951;SDS011;34758;42.148;24.744;2022-07-29T07:25:21;7.35;;;5.70;;
48951;SDS011;34758;42.148;24.744;2022-07-29T07:27:48;6.50;;;5.55;;
48951;SDS011;34758;42.148;24.744;2022-07-29T07:30:15;5.60;;;5.03;;
48951;SDS011;34758;42.148;24.744;2022-07-29T07:32:42;6.13;;;5.53;;
48951;SDS011;34758;42.148;24.744;2022-07-29T07:35:09;12.80;;;5.93;;
48951;SDS011;34758;42.148;24.744;2022-07-29T07:37:38;7.18;;;5.78;;
48951;SDS011;34758;42.148;24.744;2022-07-29T07:40:07;10.25;;;5.93;;
48951;SDS011;34758;42.148;24.744;2022-07-29T07:42:35;10.55;;;6.50;;
48951;SDS011;34758;42.148;24.744;2022-07-29T07:45:02;5.75;;;5.20;;
48951;SDS011;34758;42.148;24.744;2022-07-29T07:47:30;7.70;;;5.45;;
48951;SDS011;34758;42.148;24.744;2022-07-29T07:49:57;6.90;;;4.72;;
48951;SDS011;34758;42.148;24.744;2022-07-29T07:52:25;8.93;;;4.78;;
48951;SDS011;34758;42.148;24.744;2022-07-29T07:54:53;6.10;;;5.22;;
48951;SDS011;34758;42.148;24.744;2022-07-29T07:57:20;9.43;;;4.93;;
48951;SDS011;34758;42.148;24.744;2022-07-29T07:59:47;9.50;;;4.28;;
48951;SDS011;34758;42.148;24.744;2022-07-29T08:02:15;7.20;;;4.35;;
48951;SDS011;34758;42.148;24.744;2022-07-29T08:04:41;5.65;;;4.72;;
48951;SDS011;34758;42.148;24.744;2022-07-29T08:07:08;6.25;;;4.72;;
48951;SDS011;34758;42.148;24.744;2022-07-29T08:09:36;5.57;;;4.35;;
48951;SDS011;34758;42.148;24.744;2022-07-29T08:12:05;7.15;;;3.95;;
48951;SDS011;34758;42.148;24.744;2022-07-29T08:14:33;6.13;;;3.05;;
48951;SDS011;34758;42.148;24.744;2022-07-29T08:17:00;4.35;;;3.45;;
48951;SDS011;34758;42.148;24.744;2022-07-29T08:19:29;5.75;;;3.05;;
48951;SDS011;34758;42.148;24.744;2022-07-29T08:21:59;4.72;;;3.15;;
48951;SDS011;34758;42.148;24.744;2022-07-29T08:24:26;4.57;;;3.03;;
48951;SDS011;34758;42.148;24.744;2022-07-29T08:27:18;5.53;;;3.28;;
48951;SDS011;34758;42.148;24.744;2022-07-29T08:29:46;4.20;;;3.17;;
48951;SDS011;34758;42.148;24.744;2022-07-29T08:32:13;4.88;;;3.40;;
48951;SDS011;34758;42.148;24.744;2022-07-29T08:34:39;4.10;;;3.10;;
48951;SDS011;34758;42.148;24.744;2022-07-29T08:37:07;4.07;;;3.30;;
48951;SDS011;34758;42.148;24.744;2022-07-29T08:39:34;11.38;;;3.92;;
48951;SDS011;34758;42.148;24.744;2022-07-29T08:42:01;4.68;;;2.80;;
48951;SDS011;34758;42.148;24.744;2022-07-29T08:44:29;3.05;;;2.80;;
48951;SDS011;34758;42.148;24.744;2022-07-29T08:46:56;4.30;;;3.20;;
48951;SDS011;34758;42.148;24.744;2022-07-29T08:49:23;8.98;;;4.30;;
48951;SDS011;34758;42.148;24.744;2022-07-29T08:51:51;4.70;;;3.47;;
48951;SDS011;34758;42.148;24.744;2022-07-29T08:54:18;5.80;;;3.05;;
48951;SDS011;34758;42.148;24.744;2022-07-29T08:56:48;4.80;;;2.28;;
48951;SDS011;34758;42.148;24.744;2022-07-29T08:59:16;5.60;;;2.97;;
48951;SDS011;34758;42.148;24.744;2022-07-29T09:01:46;5.53;;;2.38;;
48951;SDS011;34758;42.148;24.744;2022-07-29T09:04:13;3.75;;;2.08;;
48951;SDS011;34758;42.148;24.744;2022-07-29T09:06:42;5.00;;;2.42;;
48951;SDS011;34758;42.148;24.744;2022-07-29T09:09:11;2.87;;;2.47;;
48951;SDS011;34758;42.148;24.744;2022-07-29T09:11:39;4.38;;;2.65;;
48951;SDS011;34758;42.148;24.744;2022-07-29T09:14:07;4.13;;;2.45;;
48951;SDS011;34758;42.148;24.744;2022-07-29T09:16:43;2.92;;;2.25;;
48951;SDS011;34758;42.148;24.744;2022-07-29T09:19:19;2.38;;;2.17;;
48951;SDS011;34758;42.148;24.744;2022-07-29T09:21:47;4.97;;;2.25;;
48951;SDS011;34758;42.148;24.744;2022-07-29T09:24:42;5.20;;;2.70;;
48951;SDS011;34758;42.148;24.744;2022-07-29T09:27:11;3.70;;;2.50;;
48951;SDS011;34758;42.148;24.744;2022-07-29T09:29:46;3.67;;;2.65;;
48951;SDS011;34758;42.148;24.744;2022-07-29T09:32:14;2.53;;;2.33;;
48951;SDS011;34758;42.148;24.744;2022-07-29T09:34:41;3.03;;;2.13;;
48951;SDS011;34758;42.148;24.744;2022-07-29T09:37:09;4.43;;;2.63;;
48951;SDS011;34758;42.148;24.744;2022-07-29T09:39:37;3.20;;;2.20;;
48951;SDS011;34758;42.148;24.744;2022-07-29T09:42:10;2.50;;;2.30;;
48951;SDS011;34758;42.148;24.744;2022-07-29T09:44:42;2.55;;;2.00;;
48951;SDS011;34758;42.148;24.744;2022-07-29T09:47:10;2.35;;;2.08;;
48951;SDS011;34758;42.148;24.744;2022-07-29T09:49:51;3.78;;;2.40;;
48951;SDS011;34758;42.148;24.744;2022-07-29T09:52:19;3.22;;;2.40;;
48951;SDS011;34758;42.148;24.744;2022-07-29T09:54:46;3.92;;;2.50;;
48951;SDS011;34758;42.148;24.744;2022-07-29T09:57:23;2.55;;;2.22;;
48951;SDS011;34758;42.148;24.744;2022-07-29T09:59:58;2.92;;;2.70;;
48951;SDS011;34758;42.148;24.744;2022-07-29T10:02:29;3.03;;;1.98;;
48951;SDS011;34758;42.148;24.744;2022-07-29T10:04:58;2.78;;;1.85;;
48951;SDS011;34758;42.148;24.744;2022-07-29T10:07:25;2.33;;;2.15;;
48951;SDS011;34758;42.148;24.744;2022-07-29T10:09:56;2.00;;;1.50;;
48951;SDS011;34758;42.148;24.744;2022-07-29T10:12:23;6.18;;;1.95;;
48951;SDS011;34758;42.148;24.744;2022-07-29T10:14:51;2.20;;;2.10;;
48951;SDS011;34758;42.148;24.744;2022-07-29T10:17:18;2.22;;;2.03;;
48951;SDS011;34758;42.148;24.744;2022-07-29T10:19:45;2.05;;;1.95;;
48951;SDS011;34758;42.148;24.744;2022-07-29T10:22:13;3.08;;;2.15;;
48951;SDS011;34758;42.148;24.744;2022-07-29T10:24:40;4.40;;;2.15;;
48951;SDS011;34758;42.148;24.744;2022-07-29T10:27:08;1.85;;;1.75;;
48951;SDS011;34758;42.148;24.744;2022-07-29T10:29:35;4.00;;;1.95;;
48951;SDS011;34758;42.148;24.744;2022-07-29T10:32:08;2.22;;;1.80;;
48951;SDS011;34758;42.148;24.744;2022-07-29T10:34:48;2.25;;;1.90;;
48951;SDS011;34758;42.148;24.744;2022-07-29T10:37:42;2.65;;;2.40;;
48951;SDS011;34758;42.148;24.744;2022-07-29T10:40:15;2.08;;;1.70;;
48951;SDS011;34758;42.148;24.744;2022-07-29T10:43:06;2.22;;;2.05;;
48951;SDS011;34758;42.148;24.744;2022-07-29T10:45:42;4.22;;;2.33;;
48951;SDS011;34758;42.148;24.744;2022-07-29T10:48:10;3.85;;;2.20;;
48951;SDS011;34758;42.148;24.744;2022-07-29T10:50:52;2.67;;;2.30;;
48951;SDS011;34758;42.148;24.744;2022-07-29T10:53:22;2.15;;;2.05;;
48951;SDS011;34758;42.148;24.744;2022-07-29T10:55:50;2.15;;;2.00;;
48951;SDS011;34758;42.148;24.744;2022-07-29T10:58:18;3.50;;;2.50;;
48951;SDS011;34758;42.148;24.744;2022-07-29T11:00:48;2.35;;;2.20;;
48951;SDS011;34758;42.148;24.744;2022-07-29T11:06:13;2.97;;;2.22;;
48951;SDS011;34758;42.148;24.744;2022-07-29T11:08:41;2.63;;;2.40;;
48951;SDS011;34758;42.148;24.744;2022-07-29T11:14:05;3.95;;;2.30;;
48951;SDS011;34758;42.148;24.744;2022-07-29T11:19:25;2.30;;;2.13;;
48951;SDS011;34758;42.148;24.744;2022-07-29T11:21:52;2.50;;;2.28;;
48951;SDS011;34758;42.148;24.744;2022-07-29T11:24:21;3.53;;;2.35;;
48951;SDS011;34758;42.148;24.744;2022-07-29T11:27:08;3.03;;;2.40;;
48951;SDS011;34758;42.148;24.744;2022-07-29T11:29:40;2.47;;;2.35;;
48951;SDS011;34758;42.148;24.744;2022-07-29T11:32:15;3.47;;;3.17;;
48951;SDS011;34758;42.148;24.744;2022-07-29T11:34:44;6.65;;;2.65;;
48951;SDS011;34758;42.148;24.744;2022-07-29T11:37:18;3.78;;;3.38;;
48951;SDS011;34758;42.148;24.744;2022-07-29T11:40:11;4.30;;;2.70;;
48951;SDS011;34758;42.148;24.744;2022-07-29T11:42:45;2.78;;;2.30;;
48951;SDS011;34758;42.148;24.744;2022-07-29T11:45:15;3.30;;;2.70;;
48951;SDS011;34758;42.148;24.744;2022-07-29T11:47:48;3.60;;;2.00;;
48951;SDS011;34758;42.148;24.744;2022-07-29T11:50:18;4.43;;;2.38;;
48951;SDS011;34758;42.148;24.744;2022-07-29T11:52:57;1.95;;;1.85;;
48951;SDS011;34758;42.148;24.744;2022-07-29T11:55:25;2.95;;;2.00;;
48951;SDS011;34758;42.148;24.744;2022-07-29T11:57:53;3.72;;;1.98;;
48951;SDS011;34758;42.148;24.744;2022-07-29T12:00:26;4.35;;;2.20;;
48951;SDS011;34758;42.148;24.744;2022-07-29T12:02:55;3.25;;;2.00;;
48951;SDS011;34758;42.148;24.744;2022-07-29T12:05:30;3.08;;;2.13;;
48951;SDS011;34758;42.148;24.744;2022-07-29T12:08:04;2.72;;;2.03;;
48951;SDS011;34758;42.148;24.744;2022-07-29T12:10:36;2.10;;;1.90;;
48951;SDS011;34758;42.148;24.744;2022-07-29T12:13:04;2.90;;;2.15;;
48951;SDS011;34758;42.148;24.744;2022-07-29T12:15:31;2.38;;;2.17;;
48951;SDS011;34758;42.148;24.744;2022-07-29T12:17:58;3.22;;;2.45;;
48951;SDS011;34758;42.148;24.744;2022-07-29T12:20:27;2.15;;;2.00;;
48951;SDS011;34758;42.148;24.744;2022-07-29T12:22:55;2.72;;;2.25;;
48951;SDS011;34758;42.148;24.744;2022-07-29T12:25:23;2.20;;;1.70;;
48951;SDS011;34758;42.148;24.744;2022-07-29T12:30:36;2.97;;;2.10;;
48951;SDS011;34758;42.148;24.744;2022-07-29T12:33:18;3.30;;;2.30;;
48951;SDS011;34758;42.148;24.744;2022-07-29T12:35:56;5.20;;;1.98;;
48951;SDS011;34758;42.148;24.744;2022-07-29T12:38:24;2.45;;;2.15;;
48951;SDS011;34758;42.148;24.744;2022-07-29T12:40:52;3.92;;;2.05;;
48951;SDS011;34758;42.148;24.744;2022-07-29T12:43:22;2.10;;;1.92;;
48951;SDS011;34758;42.148;24.744;2022-07-29T12:45:50;4.00;;;2.25;;
48951;SDS011;34758;42.148;24.744;2022-07-29T12:48:32;2.95;;;1.85;;
48951;SDS011;34758;42.148;24.744;2022-07-29T12:51:00;2.50;;;2.30;;
48951;SDS011;34758;42.148;24.744;2022-07-29T12:53:28;2.47;;;2.28;;
48951;SDS011;34758;42.148;24.744;2022-07-29T12:55:55;2.58;;;2.38;;
48951;SDS011;34758;42.148;24.744;2022-07-29T12:58:29;3.20;;;2.83;;
48951;SDS011;34758;42.148;24.744;2022-07-29T13:01:08;4.50;;;2.42;;
48951;SDS011;34758;42.148;24.744;2022-07-29T13:03:46;1.98;;;1.80;;
48951;SDS011;34758;42.148;24.744;2022-07-29T13:06:27;2.60;;;2.40;;
48951;SDS011;34758;42.148;24.744;2022-07-29T13:09:05;3.17;;;2.20;;
48951;SDS011;34758;42.148;24.744;2022-07-29T13:11:36;2.65;;;2.45;;
48951;SDS011;34758;42.148;24.744;2022-07-29T13:16:35;2.78;;;2.22;;
48951;SDS011;34758;42.148;24.744;2022-07-29T13:19:10;2.88;;;2.67;;
48951;SDS011;34758;42.148;24.744;2022-07-29T13:21:38;3.25;;;2.85;;
48951;SDS011;34758;42.148;24.744;2022-07-29T13:24:06;2.67;;;2.47;;
48951;SDS011;34758;42.148;24.744;2022-07-29T13:26:33;2.97;;;2.70;;
48951;SDS011;34758;42.148;24.744;2022-07-29T13:29:01;3.00;;;2.80;;
48951;SDS011;34758;42.148;24.744;2022-07-29T13:31:30;3.45;;;2.80;;
48951;SDS011;34758;42.148;24.744;2022-07-29T13:33:57;6.13;;;2.80;;
48951;SDS011;34758;42.148;24.744;2022-07-29T13:36:23;3.75;;;2.70;;
48951;SDS011;34758;42.148;24.744;2022-07-29T13:38:51;3.42;;;2.55;;
48951;SDS011;34758;42.148;24.744;2022-07-29T13:41:19;3.88;;;2.63;;
48951;SDS011;34758;42.148;24.744;2022-07-29T13:43:46;4.05;;;2.60;;
48951;SDS011;34758;42.148;24.744;2022-07-29T13:46:13;4.30;;;2.95;;
48951;SDS011;34758;42.148;24.744;2022-07-29T13:48:41;3.78;;;2.40;;
48951;SDS011;34758;42.148;24.744;2022-07-29T13:51:08;3.78;;;2.40;;
48951;SDS011;34758;42.148;24.744;2022-07-29T13:53:35;4.18;;;2.72;;
48951;SDS011;34758;42.148;24.744;2022-07-29T13:56:02;3.50;;;2.70;;
48951;SDS011;34758;42.148;24.744;2022-07-29T13:58:31;4.65;;;2.67;;
48951;SDS011;34758;42.148;24.744;2022-07-29T14:00:58;4.28;;;3.60;;
48951;SDS011;34758;42.148;24.744;2022-07-29T14:03:24;3.10;;;2.75;;
48951;SDS011;34758;42.148;24.744;2022-07-29T14:05:52;6.00;;;2.80;;
48951;SDS011;34758;42.148;24.744;2022-07-29T14:08:21;4.63;;;2.63;;
48951;SDS011;34758;42.148;24.744;2022-07-29T14:10:48;3.40;;;2.72;;
48951;SDS011;34758;42.148;24.744;2022-07-29T14:13:15;2.85;;;2.65;;
48951;SDS011;34758;42.148;24.744;2022-07-29T14:15:42;4.00;;;2.70;;
48951;SDS011;34758;42.148;24.744;2022-07-29T14:18:09;2.80;;;2.40;;
48951;SDS011;34758;42.148;24.744;2022-07-29T14:20:36;2.85;;;2.53;;
48951;SDS011;34758;42.148;24.744;2022-07-29T14:23:04;2.60;;;2.40;;
48951;SDS011;34758;42.148;24.744;2022-07-29T14:25:31;3.15;;;2.85;;
48951;SDS011;34758;42.148;24.744;2022-07-29T14:27:58;2.90;;;2.70;;
48951;SDS011;34758;42.148;24.744;2022-07-29T14:30:26;5.25;;;2.72;;
48951;SDS011;34758;42.148;24.744;2022-07-29T14:32:52;2.85;;;2.55;;
48951;SDS011;34758;42.148;24.744;2022-07-29T14:35:19;5.15;;;2.50;;
48951;SDS011;34758;42.148;24.744;2022-07-29T14:37:48;3.22;;;2.58;;
48951;SDS011;34758;42.148;24.744;2022-07-29T14:40:16;3.60;;;2.70;;
48951;SDS011;34758;42.148;24.744;2022-07-29T14:42:43;3.28;;;3.00;;
48951;SDS011;34758;42.148;24.744;2022-07-29T14:45:10;4.38;;;2.40;;
48951;SDS011;34758;42.148;24.744;2022-07-29T14:47:37;2.30;;;2.10;;
48951;SDS011;34758;42.148;24.744;2022-07-29T14:50:05;2.50;;;2.08;;
48951;SDS011;34758;42.148;24.744;2022-07-29T14:52:32;2.72;;;2.42;;
48951;SDS011;34758;42.148;24.744;2022-07-29T14:55:00;4.55;;;2.55;;
48951;SDS011;34758;42.148;24.744;2022-07-29T14:57:28;5.28;;;2.42;;
48951;SDS011;34758;42.148;24.744;2022-07-29T14:59:55;2.88;;;2.30;;
48951;SDS011;34758;42.148;24.744;2022-07-29T15:02:21;3.45;;;2.33;;
48951;SDS011;34758;42.148;24.744;2022-07-29T15:04:48;3.45;;;2.35;;
48951;SDS011;34758;42.148;24.744;2022-07-29T15:07:15;3.58;;;2.17;;
48951;SDS011;34758;42.148;24.744;2022-07-29T15:09:42;2.53;;;2.03;;
48951;SDS011;34758;42.148;24.744;2022-07-29T15:12:10;2.65;;;2.15;;
48951;SDS011;34758;42.148;24.744;2022-07-29T15:14:39;3.72;;;2.30;;
48951;SDS011;34758;42.148;24.744;2022-07-29T15:17:05;3.30;;;2.53;;
48951;SDS011;34758;42.148;24.744;2022-07-29T15:19:33;2.95;;;2.35;;
48951;SDS011;34758;42.148;24.744;2022-07-29T15:22:00;2.97;;;2.05;;
48951;SDS011;34758;42.148;24.744;2022-07-29T15:24:27;3.00;;;2.20;;
48951;SDS011;34758;42.148;24.744;2022-07-29T15:26:54;3.88;;;2.50;;
48951;SDS011;34758;42.148;24.744;2022-07-29T15:29:21;4.97;;;2.38;;
48951;SDS011;34758;42.148;24.744;2022-07-29T15:31:49;4.80;;;2.38;;
48951;SDS011;34758;42.148;24.744;2022-07-29T15:34:16;4.35;;;2.67;;
48951;SDS011;34758;42.148;24.744;2022-07-29T15:36:45;2.58;;;2.38;;
48951;SDS011;34758;42.148;24.744;2022-07-29T15:39:12;2.25;;;2.05;;
48951;SDS011;34758;42.148;24.744;2022-07-29T15:41:39;2.67;;;2.47;;
48951;SDS011;34758;42.148;24.744;2022-07-29T15:44:05;4.30;;;2.50;;
48951;SDS011;34758;42.148;24.744;2022-07-29T15:46:33;2.60;;;2.40;;
48951;SDS011;34758;42.148;24.744;2022-07-29T15:49:18;4.55;;;2.60;;
48951;SDS011;34758;42.148;24.744;2022-07-29T15:51:46;3.83;;;2.50;;
48951;SDS011;34758;42.148;24.744;2022-07-29T15:54:13;3.78;;;2.45;;
48951;SDS011;34758;42.148;24.744;2022-07-29T15:56:41;2.90;;;2.60;;
48951;SDS011;34758;42.148;24.744;2022-07-29T15:59:08;3.70;;;2.45;;